Time;durP1;ratioP1;P1;durP2;ratioP2;P2;SDS_P1;SDS_P2;PMS_P1;PMS_P2;Temp;Humidity;BMP_temperature;BMP_pressure;BME280_temperature;BME280_humidity;BME280_pressure;Samples;Min_cycle;Max_cycle;Signal;HPM_P1;HPM_P2
2022/03/21 00:01:51;;;;;;;8.90;5.05;;;;;;;-148.16;100.00;58328.31;5030471;28;20488;-68
2022/03/21 00:04:36;;;;;;;8.20;4.45;;;;;;;-148.16;100.00;58328.31;5030204;28;20041;-68
2022/03/21 00:07:22;;;;;;;10.55;4.68;;;;;;;-148.16;100.00;58328.31;5031011;28;20417;-67
2022/03/21 00:10:07;;;;;;;8.68;5.07;;;;;;;-148.16;100.00;58328.31;5016529;28;20056;-66
2022/03/21 00:12:52;;;;;;;10.23;4.45;;;;;;;-148.16;100.00;58328.31;5030737;28;20144;-68
2022/03/21 00:15:37;;;;;;;13.57;5.07;;;;;;;-148.16;100.00;58328.31;5031206;28;20053;-67
2022/03/21 00:18:25;;;;;;;9.63;4.43;;;;;;;-148.16;100.00;58328.31;5030083;28;20041;-67
2022/03/21 00:21:11;;;;;;;8.05;4.63;;;;;;;-148.16;100.00;58328.31;5031122;28;20042;-67
2022/03/21 00:23:55;;;;;;;7.85;4.28;;;;;;;-148.16;100.00;58328.31;5030970;28;20049;-67
2022/03/21 00:26:43;;;;;;;9.57;4.68;;;;;;;-148.16;100.00;58328.31;5030133;28;20061;-67
2022/03/21 00:29:42;;;;;;;9.57;4.95;;;;;;;-148.16;100.00;58328.31;5030017;28;20497;-66
2022/03/21 00:32:27;;;;;;;12.35;4.70;;;;;;;-148.16;100.00;58328.31;5031030;28;20100;-68
2022/03/21 00:35:16;;;;;;;10.57;5.28;;;;;;;-148.16;100.00;58328.31;5030799;28;20556;-68
2022/03/21 00:38:04;;;;;;;10.35;5.43;;;;;;;-148.16;100.00;58328.31;5031050;28;20049;-67
2022/03/21 00:40:50;;;;;;;10.85;5.70;;;;;;;-148.16;100.00;58328.31;5028975;28;20539;-66
2022/03/21 00:43:37;;;;;;;10.68;5.82;;;;;;;-148.16;100.00;58328.31;5030930;28;20049;-67
2022/03/21 00:46:22;;;;;;;18.15;5.72;;;;;;;-148.16;100.00;58328.31;5044989;28;20838;-67
2022/03/21 00:49:11;;;;;;;10.40;5.28;;;;;;;-148.16;100.00;58328.31;5047830;28;20069;-67
2022/03/21 00:51:57;;;;;;;10.85;5.60;;;;;;;-148.16;100.00;58328.31;5062099;28;20045;-67
2022/03/21 00:54:42;;;;;;;10.52;5.22;;;;;;;-148.16;100.00;58328.31;5034605;28;20412;-67
2022/03/21 00:57:27;;;;;;;11.93;5.63;;;;;;;-148.16;100.00;58328.31;5033751;28;20444;-67
2022/03/21 01:00:24;;;;;;;10.30;5.68;;;;;;;-148.16;100.00;58328.31;5061862;28;20410;-67
2022/03/21 01:03:09;;;;;;;9.27;5.28;;;;;;;-148.16;100.00;58328.31;5034275;28;20056;-67
2022/03/21 01:05:54;;;;;;;15.50;6.07;;;;;;;-148.16;100.00;58328.31;5048260;28;20402;-67
2022/03/21 01:08:41;;;;;;;10.77;5.85;;;;;;;-148.16;100.00;58328.31;5048195;28;20115;-66
2022/03/21 01:11:26;;;;;;;13.60;6.10;;;;;;;-148.16;100.00;58328.31;5035549;28;20045;-66
2022/03/21 01:14:13;;;;;;;11.13;5.43;;;;;;;-148.16;100.00;58328.31;5033854;28;20095;-66
2022/03/21 01:17:00;;;;;;;10.23;5.85;;;;;;;-148.16;100.00;58328.31;5034664;28;20045;-66
2022/03/21 01:19:44;;;;;;;9.23;5.28;;;;;;;-148.16;100.00;58328.31;5061376;28;20037;-67
2022/03/21 01:22:30;;;;;;;10.93;5.63;;;;;;;-148.16;100.00;58328.31;5034475;28;20048;-67
2022/03/21 01:25:16;;;;;;;9.63;5.88;;;;;;;-148.16;100.00;58328.31;5060561;28;20068;-66
2022/03/21 01:28:01;;;;;;;15.90;6.32;;;;;;;-148.16;100.00;58328.31;5033304;28;20485;-68
2022/03/21 01:30:46;;;;;;;12.60;6.00;;;;;;;-148.16;100.00;58328.31;5060936;28;20092;-67
2022/03/21 01:33:35;;;;;;;11.25;5.78;;;;;;;-148.16;100.00;58328.31;5046973;28;20046;-68
2022/03/21 01:36:20;;;;;;;11.63;5.85;;;;;;;-148.16;100.00;58328.31;5060797;28;20441;-67
2022/03/21 01:39:06;;;;;;;9.50;6.05;;;;;;;-148.16;100.00;58328.31;5033887;28;20041;-66
2022/03/21 01:41:52;;;;;;;9.00;6.38;;;;;;;-148.16;100.00;58328.31;5032662;28;20044;-68
2022/03/21 01:44:38;;;;;;;12.20;6.20;;;;;;;-148.16;100.00;58328.31;5033750;28;20079;-67
2022/03/21 01:47:24;;;;;;;12.05;5.85;;;;;;;-148.16;100.00;58328.31;5033960;28;20055;-67
2022/03/21 01:50:11;;;;;;;10.18;5.97;;;;;;;-148.16;100.00;58328.31;5033977;28;20045;-67
2022/03/21 01:56:07;;;;;;;12.10;6.70;;;;;;;-148.16;100.00;58328.31;5024724;28;20057;-67
2022/03/21 01:58:52;;;;;;;12.15;6.72;;;;;;;-148.16;100.00;58328.31;5018003;28;20135;-67
2022/03/21 02:01:39;;;;;;;12.68;7.78;;;;;;;-148.16;100.00;58328.31;5033576;28;20045;-67
2022/03/21 02:04:25;;;;;;;12.90;6.22;;;;;;;-148.16;100.00;58328.31;5033751;28;20485;-67
2022/03/21 02:07:14;;;;;;;11.93;6.10;;;;;;;-148.16;100.00;58328.31;5018828;28;20044;-67
2022/03/21 02:10:02;;;;;;;12.80;6.65;;;;;;;-148.16;100.00;58328.31;5032314;28;20483;-66
2022/03/21 02:12:48;;;;;;;16.48;6.63;;;;;;;-148.16;100.00;58328.31;5031971;28;20061;-67
2022/03/21 02:15:33;;;;;;;17.92;7.03;;;;;;;-148.16;100.00;58328.31;5046158;28;20793;-67
2022/03/21 02:18:20;;;;;;;12.50;6.85;;;;;;;-148.16;100.00;58328.31;5032953;28;20053;-67
2022/03/21 02:21:15;;;;;;;15.43;6.75;;;;;;;-148.16;100.00;58328.31;5030909;28;20041;-67
2022/03/21 02:24:09;;;;;;;14.10;7.05;;;;;;;-148.16;100.00;58328.31;5031605;28;20413;-67
2022/03/21 02:26:56;;;;;;;12.90;6.65;;;;;;;-148.16;100.00;58328.31;5033011;28;20076;-66
2022/03/21 02:29:43;;;;;;;14.20;6.68;;;;;;;-148.16;100.00;58328.31;5033115;28;20076;-67
2022/03/21 02:32:29;;;;;;;12.32;7.72;;;;;;;-148.16;100.00;58328.31;5033201;28;20052;-68
2022/03/21 02:35:16;;;;;;;9.75;6.65;;;;;;;-148.16;100.00;58328.31;5032034;28;20408;-67
2022/03/21 02:38:02;;;;;;;12.15;5.60;;;;;;;-148.16;100.00;58328.31;5032804;28;20477;-67
2022/03/21 02:40:48;;;;;;;14.13;6.75;;;;;;;-148.16;100.00;58328.31;5018192;28;20049;-67
2022/03/21 02:43:57;;;;;;;13.93;7.40;;;;;;;-148.16;100.00;58328.31;5032571;28;20041;-67
2022/03/21 02:46:45;;;;;;;10.98;6.70;;;;;;;-148.16;100.00;58328.31;5032844;28;20132;-66
2022/03/21 02:49:30;;;;;;;14.35;6.80;;;;;;;-148.16;100.00;58328.31;5018125;28;20106;-68
2022/03/21 02:52:17;;;;;;;12.27;6.68;;;;;;;-148.16;100.00;58328.31;5031561;28;20045;-68
2022/03/21 02:55:03;;;;;;;12.82;6.55;;;;;;;-148.16;100.00;58328.31;5031244;28;20107;-67
2022/03/21 02:57:48;;;;;;;11.18;6.18;;;;;;;-148.16;100.00;58328.31;5032175;28;20038;-68
2022/03/21 03:00:33;;;;;;;13.05;6.20;;;;;;;-148.16;100.00;58328.31;5032527;28;20069;-67
2022/03/21 03:03:18;;;;;;;11.20;6.75;;;;;;;-148.16;100.00;58328.31;5017559;28;20504;-68
2022/03/21 03:06:04;;;;;;;12.43;7.90;;;;;;;-148.16;100.00;58328.31;5032512;28;20077;-67
2022/03/21 03:08:49;;;;;;;14.13;6.78;;;;;;;-148.16;100.00;58328.31;5031119;28;20049;-66
2022/03/21 03:11:37;;;;;;;13.20;7.03;;;;;;;-148.16;100.00;58328.31;5032127;28;20046;-67
2022/03/21 03:14:24;;;;;;;12.70;7.75;;;;;;;-148.16;100.00;58328.31;5017256;28;20140;-67
2022/03/21 03:17:09;;;;;;;14.40;7.13;;;;;;;-148.16;100.00;58328.31;5031251;28;20049;-66
2022/03/21 03:19:55;;;;;;;11.15;6.68;;;;;;;-148.16;100.00;58328.31;5031056;28;20068;-66
2022/03/21 03:22:41;;;;;;;11.30;6.07;;;;;;;-148.16;100.00;58328.31;5030557;28;20065;-66
2022/03/21 03:25:27;;;;;;;12.65;6.32;;;;;;;-148.16;100.00;58328.31;5030925;28;20049;-66
2022/03/21 03:28:13;;;;;;;11.48;6.15;;;;;;;-148.16;100.00;58328.31;5013234;28;20063;-67
2022/03/21 03:30:59;;;;;;;11.98;6.75;;;;;;;-148.16;100.00;58328.31;5016805;28;20056;-66
2022/03/21 03:33:48;;;;;;;12.10;6.47;;;;;;;-148.16;100.00;58328.31;5031788;28;20052;-67
2022/03/21 03:36:36;;;;;;;14.10;6.65;;;;;;;-148.16;100.00;58328.31;5016964;28;20065;-67
2022/03/21 03:39:21;;;;;;;13.15;6.32;;;;;;;-148.16;100.00;58328.31;5031620;28;20075;-66
2022/03/21 03:42:07;;;;;;;15.50;8.25;;;;;;;-148.16;100.00;58328.31;5031596;28;20041;-66
2022/03/21 03:44:52;;;;;;;12.45;6.93;;;;;;;-148.16;100.00;58328.31;5030794;28;20049;-66
2022/03/21 03:47:37;;;;;;;13.52;6.85;;;;;;;-148.16;100.00;58328.31;5030442;28;20052;-65
2022/03/21 03:50:25;;;;;;;13.98;6.80;;;;;;;-148.16;100.00;58328.31;5030749;28;20799;-67
2022/03/21 03:53:10;;;;;;;13.07;7.32;;;;;;;-148.16;100.00;58328.31;5031547;28;20049;-67
2022/03/21 03:55:54;;;;;;;13.48;6.80;;;;;;;-148.16;100.00;58328.31;5030486;28;20041;-67
2022/03/21 03:58:41;;;;;;;12.25;6.45;;;;;;;-148.16;100.00;58328.31;5031594;28;20046;-67
2022/03/21 04:01:26;;;;;;;15.93;6.93;;;;;;;-148.16;100.00;58328.31;5027799;28;20065;-67
2022/03/21 04:04:11;;;;;;;13.45;6.38;;;;;;;-148.16;100.00;58328.31;5040785;28;20053;-66
2022/03/21 04:06:58;;;;;;;16.17;7.35;;;;;;;-148.16;100.00;58328.31;5026782;28;20100;-67
2022/03/21 04:09:43;;;;;;;12.90;7.10;;;;;;;-148.16;100.00;58328.31;5036959;28;20103;-66
2022/03/21 04:12:29;;;;;;;11.40;6.15;;;;;;;-148.16;100.00;58328.31;5018965;28;20393;-66
2022/03/21 04:15:16;;;;;;;14.15;6.55;;;;;;;-148.16;100.00;58328.31;5029604;28;20037;-66
2022/03/21 04:18:03;;;;;;;13.32;6.80;;;;;;;-148.16;100.00;58328.31;5041721;28;20064;-66
2022/03/21 04:20:51;;;;;;;11.02;6.93;;;;;;;-148.16;100.00;58328.31;5029825;28;20049;-66
2022/03/21 04:23:35;;;;;;;14.73;7.10;;;;;;;-148.16;100.00;58328.31;5029185;28;20045;-67
2022/03/21 04:26:22;;;;;;;16.52;7.28;;;;;;;-148.16;100.00;58328.31;5032145;28;20053;-67
2022/03/21 04:29:07;;;;;;;12.05;6.43;;;;;;;-148.16;100.00;58328.31;5033597;28;20053;-68
2022/03/21 04:31:52;;;;;;;11.43;5.63;;;;;;;-148.16;100.00;58328.31;5033860;28;20108;-67
2022/03/21 04:34:37;;;;;;;10.18;6.05;;;;;;;-148.16;100.00;58328.31;5036516;28;20052;-67
2022/03/21 04:37:22;;;;;;;11.20;6.50;;;;;;;-148.16;100.00;58328.31;5030733;28;20579;-67
2022/03/21 04:40:09;;;;;;;10.52;5.95;;;;;;;-148.16;100.00;58328.31;5031748;28;20076;-66
2022/03/21 04:42:54;;;;;;;12.82;6.40;;;;;;;-148.16;100.00;58328.31;5034077;28;20400;-67
2022/03/21 04:45:41;;;;;;;11.30;5.70;;;;;;;-148.16;100.00;58328.31;5034988;28;20045;-67
2022/03/21 04:48:27;;;;;;;9.80;6.47;;;;;;;-148.16;100.00;58328.31;5044694;28;20049;-67
2022/03/21 04:51:12;;;;;;;15.88;7.05;;;;;;;-148.16;100.00;58328.31;5029866;28;20559;-66
2022/03/21 04:54:00;;;;;;;17.58;6.97;;;;;;;-148.16;100.00;58328.31;5029651;28;20452;-67
2022/03/21 04:56:45;;;;;;;13.57;6.78;;;;;;;-148.16;100.00;58328.31;5029807;28;20050;-67
2022/03/21 04:59:32;;;;;;;14.02;6.65;;;;;;;-148.16;100.00;58328.31;5030898;28;20060;-68
2022/03/21 05:02:16;;;;;;;11.32;6.05;;;;;;;-148.16;100.00;58328.31;5015947;28;20041;-67
2022/03/21 05:05:02;;;;;;;14.13;6.53;;;;;;;-148.16;100.00;58328.31;5030764;28;20061;-67
2022/03/21 05:07:52;;;;;;;13.38;7.28;;;;;;;-148.16;100.00;58328.31;5030848;28;20080;-67
2022/03/21 05:10:42;;;;;;;13.25;6.82;;;;;;;-148.16;100.00;58328.31;5028179;28;20060;-67
2022/03/21 05:13:27;;;;;;;15.73;6.97;;;;;;;-148.16;100.00;58328.31;5032547;28;20061;-66
2022/03/21 05:16:13;;;;;;;12.57;6.80;;;;;;;-148.16;100.00;58328.31;5030396;28;20049;-67
2022/03/21 05:18:58;;;;;;;16.00;6.75;;;;;;;-148.16;100.00;58328.31;5027554;28;20046;-66
2022/03/21 05:21:43;;;;;;;14.27;7.43;;;;;;;-148.16;100.00;58328.31;5030207;28;20112;-66
2022/03/21 05:30:59;;;;;;;13.10;7.55;;;;;;;-148.16;100.00;58328.31;5030661;28;20045;-65
2022/03/21 05:36:55;;;;;;;12.40;6.45;;;;;;;-148.16;100.00;58328.31;5026812;28;20104;-69
2022/03/21 05:42:50;;;;;;;11.55;6.80;;;;;;;-148.16;100.00;58328.31;5021660;28;20420;-68
2022/03/21 05:45:37;;;;;;;10.85;6.10;;;;;;;-148.16;100.00;58328.31;5029093;28;20054;-67
2022/03/21 05:48:59;;;;;;;11.73;6.32;;;;;;;-148.16;100.00;58328.31;5015382;28;20050;-71
2022/03/21 05:51:50;;;;;;;11.10;6.25;;;;;;;-148.16;100.00;58328.31;5034501;28;20049;-67
2022/03/21 05:54:36;;;;;;;10.70;6.47;;;;;;;-148.16;100.00;58328.31;5038508;28;20041;-67
2022/03/21 05:57:23;;;;;;;12.75;6.95;;;;;;;-148.16;100.00;58328.31;5028483;28;20106;-68
2022/03/21 06:00:22;;;;;;;13.38;6.72;;;;;;;-148.16;100.00;58328.31;5050651;28;20112;-68
2022/03/21 06:03:09;;;;;;;14.07;7.75;;;;;;;-148.16;100.00;58328.31;5045219;28;20092;-65
2022/03/21 06:05:59;;;;;;;14.20;8.13;;;;;;;-148.16;100.00;58328.31;5032095;28;20175;-63
2022/03/21 06:08:45;;;;;;;14.32;7.60;;;;;;;-148.16;100.00;58328.31;5061965;28;20714;-64
2022/03/21 06:11:31;;;;;;;13.50;6.95;;;;;;;-148.16;100.00;58328.31;5036445;28;20049;-66
2022/03/21 06:14:18;;;;;;;13.00;7.00;;;;;;;-148.16;100.00;58328.31;5031962;28;20050;-66
2022/03/21 06:17:03;;;;;;;17.42;7.45;;;;;;;-148.16;100.00;58328.31;5060759;28;20053;-68
2022/03/21 06:19:48;;;;;;;15.73;7.65;;;;;;;-148.16;100.00;58328.31;5030004;28;20034;-65
2022/03/21 06:22:33;;;;;;;13.35;6.97;;;;;;;-148.16;100.00;58328.31;5004662;28;20084;-67
2022/03/21 06:25:19;;;;;;;14.05;7.35;;;;;;;-148.16;100.00;58328.31;5033103;28;20076;-67
2022/03/21 06:28:05;;;;;;;18.45;8.38;;;;;;;-148.16;100.00;58328.31;5033025;28;20034;-67
2022/03/21 06:30:51;;;;;;;15.10;8.05;;;;;;;-148.16;100.00;58328.31;5026045;28;20056;-66
2022/03/21 06:33:36;;;;;;;15.30;8.02;;;;;;;-148.16;100.00;58328.31;5012239;28;20405;-67
2022/03/21 06:36:22;;;;;;;15.20;7.78;;;;;;;-148.16;100.00;58328.31;5012300;28;20049;-66
2022/03/21 06:39:07;;;;;;;14.30;7.60;;;;;;;-148.16;100.00;58328.31;5026034;28;20057;-66
2022/03/21 06:41:55;;;;;;;14.88;7.55;;;;;;;-148.16;100.00;58328.31;4998766;28;20046;-68
2022/03/21 06:44:41;;;;;;;14.63;8.30;;;;;;;-148.16;100.00;58328.31;5011701;28;20054;-65
2022/03/21 06:47:28;;;;;;;11.68;6.07;;;;;;;-148.16;100.00;58328.31;5016797;28;20481;-67
2022/03/21 06:50:14;;;;;;;15.40;7.15;;;;;;;-148.16;100.00;58328.31;5025694;28;20054;-66
2022/03/21 06:53:01;;;;;;;13.85;7.18;;;;;;;-148.16;100.00;58328.31;5011911;28;20038;-67
2022/03/21 06:55:46;;;;;;;14.70;8.27;;;;;;;-148.16;100.00;58328.31;5042933;28;20045;-61
2022/03/21 06:58:31;;;;;;;14.32;8.00;;;;;;;-148.16;100.00;58328.31;5032753;28;20048;-62
2022/03/21 07:01:15;;;;;;;15.25;8.80;;;;;;;-148.16;100.00;58328.31;5045157;28;20049;-61
2022/03/21 07:04:02;;;;;;;19.02;9.20;;;;;;;-148.16;100.00;58328.31;5031878;28;20452;-60
2022/03/21 07:06:48;;;;;;;16.08;8.88;;;;;;;-148.16;100.00;58328.31;5031269;28;20049;-59
2022/03/21 07:09:34;;;;;;;18.60;9.52;;;;;;;-148.16;100.00;58328.31;5025623;28;20060;-60
2022/03/21 07:12:20;;;;;;;14.73;7.97;;;;;;;-148.16;100.00;58328.31;5027692;28;20038;-59
2022/03/21 07:15:06;;;;;;;17.92;9.07;;;;;;;-148.16;100.00;58328.31;5023463;28;20538;-59
2022/03/21 07:17:54;;;;;;;16.23;8.85;;;;;;;-148.16;100.00;58328.31;5032757;28;20053;-61
2022/03/21 07:20:43;;;;;;;16.30;8.77;;;;;;;-148.16;100.00;58328.31;5039018;28;20123;-60
2022/03/21 07:23:28;;;;;;;17.60;7.95;;;;;;;-148.16;100.00;58328.31;5043338;28;20056;-62
2022/03/21 07:26:14;;;;;;;16.75;9.10;;;;;;;-148.16;100.00;58328.31;5012419;28;20045;-61
2022/03/21 07:29:01;;;;;;;16.55;8.63;;;;;;;-148.16;100.00;58328.31;5014524;28;20053;-61
2022/03/21 07:31:47;;;;;;;14.85;8.00;;;;;;;-148.16;100.00;58328.31;5015533;28;20041;-60
2022/03/21 07:34:36;;;;;;;14.88;8.20;;;;;;;-148.16;100.00;58328.31;5027604;28;20058;-59
2022/03/21 07:37:40;;;;;;;16.55;8.07;;;;;;;-148.16;100.00;58328.31;5018499;28;20060;-60
2022/03/21 07:40:30;;;;;;;13.93;7.65;;;;;;;-148.16;100.00;58328.31;5031830;28;20095;-60
2022/03/21 07:43:17;;;;;;;17.45;8.70;;;;;;;-148.16;100.00;58328.31;5030583;28;20046;-64
2022/03/21 07:49:07;;;;;;;17.83;7.65;;;;;;;-148.16;100.00;58328.31;5031768;28;20041;-62
2022/03/21 07:51:53;;;;;;;15.50;7.75;;;;;;;-148.16;100.00;58328.31;5031593;28;20053;-62
2022/03/21 07:54:41;;;;;;;16.13;8.40;;;;;;;-148.16;100.00;58328.31;5016818;28;20060;-61
2022/03/21 07:57:27;;;;;;;15.25;8.95;;;;;;;-148.16;100.00;58328.31;5030707;28;20050;-63
2022/03/21 08:00:15;;;;;;;15.57;8.02;;;;;;;-148.16;100.00;58328.31;5047282;28;20048;-63
2022/03/21 08:03:03;;;;;;;14.95;8.80;;;;;;;-148.16;100.00;58328.31;5041486;28;20048;-65
2022/03/21 08:05:52;;;;;;;14.57;8.65;;;;;;;-148.16;100.00;58328.31;5032632;28;20139;-65
2022/03/21 08:08:43;;;;;;;196.02;22.20;;;;;;;-148.16;100.00;58328.31;5016193;28;20041;-62
2022/03/21 08:11:29;;;;;;;17.40;10.15;;;;;;;-148.16;100.00;58328.31;5033263;28;20045;-62
2022/03/21 08:14:16;;;;;;;19.92;9.05;;;;;;;-148.16;100.00;58328.31;5031587;28;20508;-62
2022/03/21 08:17:04;;;;;;;17.40;8.35;;;;;;;-148.16;100.00;58328.31;5031450;28;20046;-63
2022/03/21 08:19:50;;;;;;;21.63;9.70;;;;;;;-148.16;100.00;58328.31;5010739;28;20128;-62
2022/03/21 08:22:37;;;;;;;18.17;8.60;;;;;;;-148.16;100.00;58328.31;5023322;28;20084;-62
2022/03/21 08:25:22;;;;;;;15.18;8.18;;;;;;;-148.16;100.00;58328.31;5020324;28;20057;-61
2022/03/21 08:28:09;;;;;;;19.60;8.85;;;;;;;-148.16;100.00;58328.31;5043715;28;20094;-63
2022/03/21 08:30:54;;;;;;;16.05;8.27;;;;;;;-148.16;100.00;58328.31;5029659;28;20046;-62
2022/03/21 08:33:41;;;;;;;18.38;7.93;;;;;;;-148.16;100.00;58328.31;5029637;28;20060;-61
2022/03/21 08:36:27;;;;;;;14.98;7.20;;;;;;;-148.16;100.00;58328.31;5030928;28;20542;-64
2022/03/21 08:39:12;;;;;;;15.52;8.27;;;;;;;-148.16;100.00;58328.31;5029507;28;20401;-64
2022/03/21 08:41:59;;;;;;;13.68;7.40;;;;;;;-148.16;100.00;58328.31;5029885;28;20120;-65
2022/03/21 08:44:45;;;;;;;13.95;7.47;;;;;;;-148.16;100.00;58328.31;5030070;28;20554;-65
2022/03/21 08:47:31;;;;;;;16.52;8.40;;;;;;;-148.16;100.00;58328.31;5029975;28;20042;-64
2022/03/21 08:50:17;;;;;;;16.33;7.85;;;;;;;-148.16;100.00;58328.31;5029947;28;20050;-62
2022/03/21 08:53:02;;;;;;;14.10;8.23;;;;;;;-148.16;100.00;58328.31;5030801;28;20044;-63
2022/03/21 08:55:49;;;;;;;14.90;8.68;;;;;;;-148.16;100.00;58328.31;5033447;28;20060;-62
2022/03/21 08:58:34;;;;;;;16.13;8.63;;;;;;;-148.16;100.00;58328.31;5030766;28;20413;-67
2022/03/21 09:01:19;;;;;;;14.65;8.43;;;;;;;-148.16;100.00;58328.31;5029924;28;20042;-60
2022/03/21 09:04:04;;;;;;;13.10;7.22;;;;;;;-148.16;100.00;58328.31;5030635;28;20065;-61
2022/03/21 09:06:50;;;;;;;15.02;7.13;;;;;;;-148.16;100.00;58328.31;5029899;28;20049;-61
2022/03/21 09:09:35;;;;;;;14.02;8.38;;;;;;;-148.16;100.00;58328.31;5039472;28;20048;-64
2022/03/21 09:12:20;;;;;;;13.48;8.38;;;;;;;-148.16;100.00;58328.31;5037890;28;20036;-65
2022/03/21 09:15:06;;;;;;;14.38;8.20;;;;;;;-148.16;100.00;58328.31;5036225;28;20053;-62
2022/03/21 09:17:52;;;;;;;17.50;8.52;;;;;;;-148.16;100.00;58328.31;5020293;28;20050;-61
2022/03/21 09:20:38;;;;;;;12.00;7.65;;;;;;;-148.16;100.00;58328.31;5034423;28;20107;-62
2022/03/21 09:23:23;;;;;;;14.20;8.75;;;;;;;-148.16;100.00;58328.31;5027474;28;20050;-62
2022/03/21 09:26:10;;;;;;;11.52;7.20;;;;;;;-148.16;100.00;58328.31;5013933;28;20049;-61
2022/03/21 09:29:05;;;;;;;11.65;8.02;;;;;;;-148.16;100.00;58328.31;5013422;28;20121;-61
2022/03/21 09:31:51;;;;;;;15.13;8.60;;;;;;;-148.16;100.00;58328.31;5019707;28;20075;-61
2022/03/21 09:34:39;;;;;;;13.57;8.02;;;;;;;-148.16;100.00;58328.31;5032567;28;20045;-59
2022/03/21 09:37:23;;;;;;;14.25;8.00;;;;;;;-148.16;100.00;58328.31;5034353;28;20277;-61
2022/03/21 09:40:09;;;;;;;14.23;8.60;;;;;;;-148.16;100.00;58328.31;5035081;28;20440;-60
2022/03/21 09:42:57;;;;;;;12.10;7.72;;;;;;;-148.16;100.00;58328.31;5029697;28;20474;-62
2022/03/21 09:45:42;;;;;;;16.25;8.32;;;;;;;-148.16;100.00;58328.31;5013425;28;20563;-58
2022/03/21 09:48:27;;;;;;;12.30;7.80;;;;;;;-148.16;100.00;58328.31;5015183;28;20049;-60
2022/03/21 09:51:12;;;;;;;15.85;7.65;;;;;;;-148.16;100.00;58328.31;5032408;28;20064;-59
2022/03/21 09:53:58;;;;;;;15.60;8.52;;;;;;;-148.16;100.00;58328.31;5029129;28;20045;-62
2022/03/21 09:56:43;;;;;;;12.68;8.55;;;;;;;-148.16;100.00;58328.31;5030481;28;20037;-62
2022/03/21 09:59:29;;;;;;;12.10;7.65;;;;;;;-148.16;100.00;58328.31;5037234;28;20543;-59
2022/03/21 10:02:22;;;;;;;15.00;8.98;;;;;;;-148.16;100.00;58328.31;5038599;28;20216;-64
2022/03/21 10:05:07;;;;;;;14.52;7.72;;;;;;;-148.16;100.00;58328.31;5045013;28;20408;-61
2022/03/21 10:07:53;;;;;;;10.77;7.20;;;;;;;-148.16;100.00;58328.31;5044915;28;20144;-61
2022/03/21 10:10:38;;;;;;;12.15;6.70;;;;;;;-148.16;100.00;58328.31;5034495;28;20455;-59
2022/03/21 10:13:27;;;;;;;11.75;6.40;;;;;;;-148.16;100.00;58328.31;5059028;28;20057;-60
2022/03/21 10:16:16;;;;;;;10.80;5.90;;;;;;;-148.16;100.00;58328.31;5056472;28;20065;-60
2022/03/21 10:19:02;;;;;;;10.20;5.80;;;;;;;-148.16;100.00;58328.31;5039019;28;20045;-61
2022/03/21 10:22:20;;;;;;;8.60;5.68;;;;;;;-148.16;100.00;58328.31;5031369;28;20153;-59
2022/03/21 10:25:19;;;;;;;8.00;4.78;;;;;;;-148.16;100.00;58328.31;5027618;28;20061;-59
2022/03/21 10:28:06;;;;;;;7.75;5.13;;;;;;;-148.16;100.00;58328.31;5071718;28;20041;-60
2022/03/21 10:30:51;;;;;;;8.32;5.05;;;;;;;-148.16;100.00;58328.31;5044162;28;20033;-59
2022/03/21 10:33:36;;;;;;;8.02;4.95;;;;;;;-148.16;100.00;58328.31;5075939;28;20045;-58
2022/03/21 10:36:21;;;;;;;8.20;4.70;;;;;;;-148.16;100.00;58328.31;5057880;28;20041;-60
2022/03/21 10:39:09;;;;;;;7.85;4.35;;;;;;;-148.16;100.00;58328.31;5043627;28;20048;-60
2022/03/21 10:41:57;;;;;;;6.68;4.20;;;;;;;-148.16;100.00;58328.31;5047333;28;20037;-60
2022/03/21 10:44:53;;;;;;;8.13;4.47;;;;;;;-148.16;100.00;58328.31;5036886;28;20049;-60
2022/03/21 10:47:52;;;;;;;6.78;4.30;;;;;;;-148.16;100.00;58328.31;5012549;28;20080;-59
2022/03/21 10:50:42;;;;;;;10.38;5.32;;;;;;;-148.16;100.00;58328.31;5013148;28;20050;-60
2022/03/21 10:53:28;;;;;;;6.00;4.00;;;;;;;-148.16;100.00;58328.31;5012788;28;20485;-60
2022/03/21 10:56:13;;;;;;;9.15;4.80;;;;;;;-148.16;100.00;58328.31;5039516;28;20049;-60
2022/03/21 10:58:58;;;;;;;9.55;4.95;;;;;;;-148.16;100.00;58328.31;5011729;28;20491;-59
2022/03/21 11:01:44;;;;;;;8.52;4.53;;;;;;;-148.16;100.00;58328.31;5012988;28;20049;-60
2022/03/21 11:04:29;;;;;;;7.10;4.45;;;;;;;-148.16;100.00;58328.31;4998003;28;20504;-59
2022/03/21 11:07:14;;;;;;;7.20;4.68;;;;;;;-148.16;100.00;58328.31;5012433;28;20050;-60
2022/03/21 11:10:00;;;;;;;7.72;4.35;;;;;;;-148.16;100.00;58328.31;5012658;28;20133;-59
2022/03/21 11:12:46;;;;;;;6.78;4.15;;;;;;;-148.16;100.00;58328.31;5025043;28;20620;-59
2022/03/21 11:15:35;;;;;;;8.30;5.05;;;;;;;-148.16;100.00;58328.31;5025290;28;20046;-60
2022/03/21 11:18:21;;;;;;;9.07;4.57;;;;;;;-148.16;100.00;58328.31;5012643;28;20077;-60
2022/03/21 11:21:11;;;;;;;7.03;4.30;;;;;;;-148.16;100.00;58328.31;5011640;28;20042;-60
2022/03/21 11:23:56;;;;;;;8.73;4.47;;;;;;;-148.16;100.00;58328.31;5012533;28;20060;-59
2022/03/21 11:27:23;;;;;;;7.63;5.00;;;;;;;-148.16;100.00;58328.31;5012609;28;20046;-59
2022/03/21 11:30:17;;;;;;;8.18;4.95;;;;;;;-148.16;100.00;58328.31;5012992;28;20046;-60
2022/03/21 11:33:27;;;;;;;8.50;5.15;;;;;;;-148.16;100.00;58328.31;5033316;28;20045;-59
2022/03/21 11:36:13;;;;;;;7.22;4.88;;;;;;;-148.16;100.00;58328.31;5032444;28;20045;-60
2022/03/21 11:39:00;;;;;;;7.20;4.72;;;;;;;-148.16;100.00;58328.31;5030710;28;20049;-60
2022/03/21 11:41:58;;;;;;;7.05;4.15;;;;;;;-148.16;100.00;58328.31;5031811;28;20047;-61
2022/03/21 11:45:23;;;;;;;8.55;4.78;;;;;;;-148.16;100.00;58328.31;5031570;28;20045;-59
2022/03/21 11:48:17;;;;;;;7.82;4.25;;;;;;;-148.16;100.00;58328.31;5030804;28;20045;-62
2022/03/21 11:51:18;;;;;;;9.35;4.88;;;;;;;-148.16;100.00;58328.31;5030476;28;20038;-60
2022/03/21 11:54:06;;;;;;;6.93;4.55;;;;;;;-148.16;100.00;58328.31;5031455;28;20402;-59
2022/03/21 11:56:54;;;;;;;8.13;4.60;;;;;;;-148.16;100.00;58328.31;5016475;28;20045;-60
2022/03/21 11:59:39;;;;;;;7.18;4.13;;;;;;;-148.16;100.00;58328.31;5049390;28;20053;-61
2022/03/21 12:02:24;;;;;;;8.23;4.38;;;;;;;-148.16;100.00;58328.31;5031102;28;20045;-61
2022/03/21 12:05:10;;;;;;;9.23;4.15;;;;;;;-148.16;100.00;58328.31;5062189;28;20044;-59
2022/03/21 12:08:34;;;;;;;7.30;4.75;;;;;;;-148.16;100.00;58328.31;5048739;28;20049;-59
2022/03/21 12:11:37;;;;;;;7.80;4.40;;;;;;;-148.16;100.00;58328.31;5051275;28;20041;-60
2022/03/21 12:14:36;;;;;;;7.90;5.03;;;;;;;-148.16;100.00;58328.31;5063770;28;20057;-61
2022/03/21 12:17:22;;;;;;;9.30;4.53;;;;;;;-148.16;100.00;58328.31;5043270;28;20052;-61
2022/03/21 12:20:10;;;;;;;6.80;4.28;;;;;;;-148.16;100.00;58328.31;5048417;28;20041;-61
2022/03/21 12:23:18;;;;;;;7.05;4.28;;;;;;;-148.16;100.00;58328.31;5044519;28;20045;-59
2022/03/21 12:26:04;;;;;;;5.95;3.90;;;;;;;-148.16;100.00;58328.31;5037030;28;20455;-59
2022/03/21 12:32:25;;;;;;;7.85;3.92;;;;;;;-148.16;100.00;58328.31;5048545;28;20045;-59
2022/03/21 12:35:39;;;;;;;7.13;4.35;;;;;;;-148.16;100.00;58328.31;5036682;28;20056;-60
2022/03/21 12:38:25;;;;;;;8.32;4.90;;;;;;;-148.16;100.00;58328.31;5069038;28;20106;-59
2022/03/21 12:41:11;;;;;;;9.77;4.68;;;;;;;-148.16;100.00;58328.31;5035803;28;20060;-59
2022/03/21 12:43:56;;;;;;;8.82;4.72;;;;;;;-148.16;100.00;58328.31;5042639;28;20037;-60
2022/03/21 12:46:43;;;;;;;6.38;4.57;;;;;;;-148.16;100.00;58328.31;5073685;28;20072;-59
2022/03/21 12:49:55;;;;;;;7.55;4.50;;;;;;;-148.16;100.00;58328.31;5049374;28;20045;-59
2022/03/21 12:52:42;;;;;;;;;;;;;;;-148.16;100.00;58328.31;5055289;28;20067;-60
2022/03/21 12:55:28;;;;;;;8.02;5.07;;;;;;;-148.16;100.00;58328.31;5053910;28;20486;-60
2022/03/21 12:58:15;;;;;;;7.63;4.95;;;;;;;-148.16;100.00;58328.31;5051793;28;20045;-61
2022/03/21 13:01:02;;;;;;;9.32;4.95;;;;;;;-148.16;100.00;58328.31;5033648;28;20063;-60